sensor_id;sensor_type;location;lat;lon;timestamp;temperature;humidity
64961;SHT31;51487;52.266;10.542;2022-08-01T00:01:25;19.12;94.77
64961;SHT31;51487;52.266;10.542;2022-08-01T00:03:50;19.19;94.94
64961;SHT31;51487;52.266;10.542;2022-08-01T00:06:16;19.19;94.84
64961;SHT31;51487;52.266;10.542;2022-08-01T00:08:42;19.19;95.00
64961;SHT31;51487;52.266;10.542;2022-08-01T00:11:07;19.17;94.81
64961;SHT31;51487;52.266;10.542;2022-08-01T00:13:34;19.19;94.69
64961;SHT31;51487;52.266;10.542;2022-08-01T00:16:00;19.10;94.91
64961;SHT31;51487;52.266;10.542;2022-08-01T00:18:26;19.10;95.44
64961;SHT31;51487;52.266;10.542;2022-08-01T00:20:51;19.16;95.08
64961;SHT31;51487;52.266;10.542;2022-08-01T00:23:17;19.17;95.00
64961;SHT31;51487;52.266;10.542;2022-08-01T00:25:43;19.17;94.87
64961;SHT31;51487;52.266;10.542;2022-08-01T00:28:08;19.16;95.15
64961;SHT31;51487;52.266;10.542;2022-08-01T00:30:35;19.16;94.94
64961;SHT31;51487;52.266;10.542;2022-08-01T00:33:01;19.24;94.58
64961;SHT31;51487;52.266;10.542;2022-08-01T00:35:27;19.20;94.93
64961;SHT31;51487;52.266;10.542;2022-08-01T00:37:53;19.30;94.45
64961;SHT31;51487;52.266;10.542;2022-08-01T00:40:19;19.33;94.45
64961;SHT31;51487;52.266;10.542;2022-08-01T00:42:44;19.40;93.88
64961;SHT31;51487;52.266;10.542;2022-08-01T00:45:11;19.41;93.60
64961;SHT31;51487;52.266;10.542;2022-08-01T00:47:37;19.50;93.09
64961;SHT31;51487;52.266;10.542;2022-08-01T00:50:04;19.41;94.00
64961;SHT31;51487;52.266;10.542;2022-08-01T00:52:31;19.51;93.42
64961;SHT31;51487;52.266;10.542;2022-08-01T00:54:57;19.51;93.18
64961;SHT31;51487;52.266;10.542;2022-08-01T00:57:23;19.55;93.54
64961;SHT31;51487;52.266;10.542;2022-08-01T00:59:49;19.58;93.04
64961;SHT31;51487;52.266;10.542;2022-08-01T01:02:14;19.61;92.91
64961;SHT31;51487;52.266;10.542;2022-08-01T01:04:42;19.57;93.20
64961;SHT31;51487;52.266;10.542;2022-08-01T01:07:21;19.49;93.45
64961;SHT31;51487;52.266;10.542;2022-08-01T01:10:12;19.51;93.84
64961;SHT31;51487;52.266;10.542;2022-08-01T01:13:05;19.51;93.57
64961;SHT31;51487;52.266;10.542;2022-08-01T01:15:44;19.54;93.17
64961;SHT31;51487;52.266;10.542;2022-08-01T01:18:19;19.53;93.18
64961;SHT31;51487;52.266;10.542;2022-08-01T01:24:13;19.57;93.38
64961;SHT31;51487;52.266;10.542;2022-08-01T01:27:24;19.60;93.37
64961;SHT31;51487;52.266;10.542;2022-08-01T01:29:56;19.65;93.08
64961;SHT31;51487;52.266;10.542;2022-08-01T01:32:32;19.64;93.26
64961;SHT31;51487;52.266;10.542;2022-08-01T01:35:03;19.63;93.42
64961;SHT31;51487;52.266;10.542;2022-08-01T01:37:33;19.60;93.75
64961;SHT31;51487;52.266;10.542;2022-08-01T01:40:02;19.54;94.33
64961;SHT31;51487;52.266;10.542;2022-08-01T01:42:30;19.54;93.97
64961;SHT31;51487;52.266;10.542;2022-08-01T01:44:58;19.51;94.45
64961;SHT31;51487;52.266;10.542;2022-08-01T01:47:27;19.51;94.35
64961;SHT31;51487;52.266;10.542;2022-08-01T01:49:55;19.44;94.70
64961;SHT31;51487;52.266;10.542;2022-08-01T01:52:23;19.43;95.04
64961;SHT31;51487;52.266;10.542;2022-08-01T01:54:52;19.49;94.63
64961;SHT31;51487;52.266;10.542;2022-08-01T01:57:19;19.41;95.21
64961;SHT31;51487;52.266;10.542;2022-08-01T01:59:47;19.44;94.90
64961;SHT31;51487;52.266;10.542;2022-08-01T02:02:16;19.36;95.45
64961;SHT31;51487;52.266;10.542;2022-08-01T02:04:45;19.41;94.90
64961;SHT31;51487;52.266;10.542;2022-08-01T02:07:25;19.43;94.75
64961;SHT31;51487;52.266;10.542;2022-08-01T02:09:53;19.43;94.97
64961;SHT31;51487;52.266;10.542;2022-08-01T02:12:20;19.44;94.50
64961;SHT31;51487;52.266;10.542;2022-08-01T02:14:50;19.36;95.12
64961;SHT31;51487;52.266;10.542;2022-08-01T02:17:20;19.36;94.86
64961;SHT31;51487;52.266;10.542;2022-08-01T02:19:46;19.46;94.47
64961;SHT31;51487;52.266;10.542;2022-08-01T02:22:30;19.40;94.65
64961;SHT31;51487;52.266;10.542;2022-08-01T02:25:07;19.43;94.90
64961;SHT31;51487;52.266;10.542;2022-08-01T02:27:56;19.43;94.53
64961;SHT31;51487;52.266;10.542;2022-08-01T02:30:31;19.51;94.41
64961;SHT31;51487;52.266;10.542;2022-08-01T02:33:25;19.49;94.20
64961;SHT31;51487;52.266;10.542;2022-08-01T02:35:58;19.55;94.40
64961;SHT31;51487;52.266;10.542;2022-08-01T02:38:27;19.54;94.36
64961;SHT31;51487;52.266;10.542;2022-08-01T02:40:58;19.51;94.45
64961;SHT31;51487;52.266;10.542;2022-08-01T02:43:28;19.41;95.14
64961;SHT31;51487;52.266;10.542;2022-08-01T02:46:01;19.43;95.13
64961;SHT31;51487;52.266;10.542;2022-08-01T02:48:29;19.51;94.66
64961;SHT31;51487;52.266;10.542;2022-08-01T02:50:59;19.47;94.66
64961;SHT31;51487;52.266;10.542;2022-08-01T02:53:30;19.50;94.61
64961;SHT31;51487;52.266;10.542;2022-08-01T02:55:58;19.43;94.84
64961;SHT31;51487;52.266;10.542;2022-08-01T02:58:25;19.41;94.77
64961;SHT31;51487;52.266;10.542;2022-08-01T03:00:53;19.43;94.79
64961;SHT31;51487;52.266;10.542;2022-08-01T03:03:19;19.38;94.87
64961;SHT31;51487;52.266;10.542;2022-08-01T03:05:46;19.43;95.03
64961;SHT31;51487;52.266;10.542;2022-08-01T03:08:16;19.41;94.74
64961;SHT31;51487;52.266;10.542;2022-08-01T03:10:44;19.44;94.50
64961;SHT31;51487;52.266;10.542;2022-08-01T03:13:12;19.34;94.86
64961;SHT31;51487;52.266;10.542;2022-08-01T03:15:41;19.34;94.94
64961;SHT31;51487;52.266;10.542;2022-08-01T03:18:11;19.33;95.06
64961;SHT31;51487;52.266;10.542;2022-08-01T03:20:37;19.28;95.87
64961;SHT31;51487;52.266;10.542;2022-08-01T03:23:07;19.22;95.49
64961;SHT31;51487;52.266;10.542;2022-08-01T03:25:38;19.26;95.67
64961;SHT31;51487;52.266;10.542;2022-08-01T03:28:07;19.31;95.64
64961;SHT31;51487;52.266;10.542;2022-08-01T03:30:35;19.23;95.93
64961;SHT31;51487;52.266;10.542;2022-08-01T03:33:02;19.15;96.00
64961;SHT31;51487;52.266;10.542;2022-08-01T03:35:33;19.16;96.14
64961;SHT31;51487;52.266;10.542;2022-08-01T03:38:01;18.99;96.23
64961;SHT31;51487;52.266;10.542;2022-08-01T03:40:53;19.03;96.47
64961;SHT31;51487;52.266;10.542;2022-08-01T03:43:36;19.03;96.02
64961;SHT31;51487;52.266;10.542;2022-08-01T03:46:11;19.07;95.91
64961;SHT31;51487;52.266;10.542;2022-08-01T03:48:47;18.91;95.77
64961;SHT31;51487;52.266;10.542;2022-08-01T03:51:14;19.02;95.79
64961;SHT31;51487;52.266;10.542;2022-08-01T03:53:44;18.86;96.27
64961;SHT31;51487;52.266;10.542;2022-08-01T03:56:13;18.82;96.14
64961;SHT31;51487;52.266;10.542;2022-08-01T03:58:41;18.81;96.52
64961;SHT31;51487;52.266;10.542;2022-08-01T04:01:08;18.84;96.06
64961;SHT31;51487;52.266;10.542;2022-08-01T04:03:35;18.73;96.26
64961;SHT31;51487;52.266;10.542;2022-08-01T04:06:07;18.78;96.45
64961;SHT31;51487;52.266;10.542;2022-08-01T04:08:38;18.78;96.08
64961;SHT31;51487;52.266;10.542;2022-08-01T04:11:04;18.65;96.35
64961;SHT31;51487;52.266;10.542;2022-08-01T04:13:31;18.81;96.04
64961;SHT31;51487;52.266;10.542;2022-08-01T04:15:57;18.75;96.05
64961;SHT31;51487;52.266;10.542;2022-08-01T04:18:23;18.81;96.06
64961;SHT31;51487;52.266;10.542;2022-08-01T04:20:49;18.66;96.56
64961;SHT31;51487;52.266;10.542;2022-08-01T04:23:22;18.73;96.29
64961;SHT31;51487;52.266;10.542;2022-08-01T04:25:50;18.79;96.23
64961;SHT31;51487;52.266;10.542;2022-08-01T04:28:17;18.76;96.19
64961;SHT31;51487;52.266;10.542;2022-08-01T04:30:47;18.89;95.97
64961;SHT31;51487;52.266;10.542;2022-08-01T04:33:15;18.89;95.68
64961;SHT31;51487;52.266;10.542;2022-08-01T04:35:47;18.95;95.79
64961;SHT31;51487;52.266;10.542;2022-08-01T04:38:19;18.81;96.06
64961;SHT31;51487;52.266;10.542;2022-08-01T04:40:48;18.91;95.57
64961;SHT31;51487;52.266;10.542;2022-08-01T04:43:16;18.89;95.60
64961;SHT31;51487;52.266;10.542;2022-08-01T04:45:43;18.81;95.92
64961;SHT31;51487;52.266;10.542;2022-08-01T04:48:10;18.85;95.87
64961;SHT31;51487;52.266;10.542;2022-08-01T04:50:37;18.88;95.96
64961;SHT31;51487;52.266;10.542;2022-08-01T04:53:03;18.92;95.59
64961;SHT31;51487;52.266;10.542;2022-08-01T04:55:29;18.88;95.67
64961;SHT31;51487;52.266;10.542;2022-08-01T04:57:56;18.78;96.27
64961;SHT31;51487;52.266;10.542;2022-08-01T05:00:22;18.88;96.05
64961;SHT31;51487;52.266;10.542;2022-08-01T05:02:47;18.88;95.78
64961;SHT31;51487;52.266;10.542;2022-08-01T05:05:13;18.86;95.82
64961;SHT31;51487;52.266;10.542;2022-08-01T05:07:38;18.81;96.10
64961;SHT31;51487;52.266;10.542;2022-08-01T05:10:05;18.81;96.39
64961;SHT31;51487;52.266;10.542;2022-08-01T05:12:31;18.84;96.46
64961;SHT31;51487;52.266;10.542;2022-08-01T05:14:59;18.75;96.36
64961;SHT31;51487;52.266;10.542;2022-08-01T05:17:25;18.61;96.39
64961;SHT31;51487;52.266;10.542;2022-08-01T05:19:51;18.65;96.40
64961;SHT31;51487;52.266;10.542;2022-08-01T05:22:16;18.81;96.17
64961;SHT31;51487;52.266;10.542;2022-08-01T05:24:42;18.88;95.91
64961;SHT31;51487;52.266;10.542;2022-08-01T05:27:08;19.05;95.75
64961;SHT31;51487;52.266;10.542;2022-08-01T05:29:34;19.09;95.02
64961;SHT31;51487;52.266;10.542;2022-08-01T05:32:00;19.10;94.79
64961;SHT31;51487;52.266;10.542;2022-08-01T05:34:26;18.94;94.78
64961;SHT31;51487;52.266;10.542;2022-08-01T05:36:52;19.10;94.88
64961;SHT31;51487;52.266;10.542;2022-08-01T05:39:18;18.96;94.80
64961;SHT31;51487;52.266;10.542;2022-08-01T05:41:46;19.10;94.72
64961;SHT31;51487;52.266;10.542;2022-08-01T05:44:12;19.24;94.31
64961;SHT31;51487;52.266;10.542;2022-08-01T05:46:38;19.33;93.49
64961;SHT31;51487;52.266;10.542;2022-08-01T05:49:05;19.38;93.28
64961;SHT31;51487;52.266;10.542;2022-08-01T05:51:31;19.36;93.21
64961;SHT31;51487;52.266;10.542;2022-08-01T05:53:57;19.26;93.43
64961;SHT31;51487;52.266;10.542;2022-08-01T05:56:23;19.37;92.86
64961;SHT31;51487;52.266;10.542;2022-08-01T05:58:50;19.40;92.98
64961;SHT31;51487;52.266;10.542;2022-08-01T06:01:16;19.26;93.55
64961;SHT31;51487;52.266;10.542;2022-08-01T06:03:42;19.28;93.54
64961;SHT31;51487;52.266;10.542;2022-08-01T06:06:08;19.46;92.84
64961;SHT31;51487;52.266;10.542;2022-08-01T06:08:33;19.55;92.64
64961;SHT31;51487;52.266;10.542;2022-08-01T06:10:59;19.71;92.86
64961;SHT31;51487;52.266;10.542;2022-08-01T06:13:25;19.85;91.66
64961;SHT31;51487;52.266;10.542;2022-08-01T06:15:50;19.77;91.45
64961;SHT31;51487;52.266;10.542;2022-08-01T06:18:17;19.55;92.25
64961;SHT31;51487;52.266;10.542;2022-08-01T06:20:43;19.71;91.78
64961;SHT31;51487;52.266;10.542;2022-08-01T06:23:09;19.67;91.66
64961;SHT31;51487;52.266;10.542;2022-08-01T06:25:35;19.75;91.23
64961;SHT31;51487;52.266;10.542;2022-08-01T06:28:01;19.70;91.31
64961;SHT31;51487;52.266;10.542;2022-08-01T06:30:27;19.82;90.44
64961;SHT31;51487;52.266;10.542;2022-08-01T06:32:52;19.89;90.74
64961;SHT31;51487;52.266;10.542;2022-08-01T06:35:21;20.05;89.93
64961;SHT31;51487;52.266;10.542;2022-08-01T06:37:47;20.11;89.37
64961;SHT31;51487;52.266;10.542;2022-08-01T06:40:13;20.43;88.87
64961;SHT31;51487;52.266;10.542;2022-08-01T06:42:39;20.46;88.48
64961;SHT31;51487;52.266;10.542;2022-08-01T06:45:07;20.32;89.01
64961;SHT31;51487;52.266;10.542;2022-08-01T06:47:33;20.09;89.08
64961;SHT31;51487;52.266;10.542;2022-08-01T06:49:59;19.92;89.68
64961;SHT31;51487;52.266;10.542;2022-08-01T06:52:25;19.68;91.28
64961;SHT31;51487;52.266;10.542;2022-08-01T06:54:51;19.70;91.34
64961;SHT31;51487;52.266;10.542;2022-08-01T06:57:17;19.77;91.44
64961;SHT31;51487;52.266;10.542;2022-08-01T06:59:42;19.47;92.57
64961;SHT31;51487;52.266;10.542;2022-08-01T07:02:08;19.67;91.97
64961;SHT31;51487;52.266;10.542;2022-08-01T07:04:34;19.63;92.46
64961;SHT31;51487;52.266;10.542;2022-08-01T07:07:00;19.41;92.23
64961;SHT31;51487;52.266;10.542;2022-08-01T07:09:26;19.37;93.24
64961;SHT31;51487;52.266;10.542;2022-08-01T07:11:53;19.22;93.08
64961;SHT31;51487;52.266;10.542;2022-08-01T07:14:20;19.37;93.22
64961;SHT31;51487;52.266;10.542;2022-08-01T07:16:46;19.16;91.85
64961;SHT31;51487;52.266;10.542;2022-08-01T07:19:12;19.33;91.14
64961;SHT31;51487;52.266;10.542;2022-08-01T07:21:38;19.17;91.03
64961;SHT31;51487;52.266;10.542;2022-08-01T07:24:06;19.16;90.78
64961;SHT31;51487;52.266;10.542;2022-08-01T07:26:32;19.16;90.63
64961;SHT31;51487;52.266;10.542;2022-08-01T07:28:57;19.20;91.49
64961;SHT31;51487;52.266;10.542;2022-08-01T07:31:23;19.38;90.98
64961;SHT31;51487;52.266;10.542;2022-08-01T07:33:50;19.40;90.41
64961;SHT31;51487;52.266;10.542;2022-08-01T07:36:17;19.61;90.27
64961;SHT31;51487;52.266;10.542;2022-08-01T07:38:43;19.86;90.27
64961;SHT31;51487;52.266;10.542;2022-08-01T07:41:09;19.77;89.34
64961;SHT31;51487;52.266;10.542;2022-08-01T07:43:35;19.71;89.50
64961;SHT31;51487;52.266;10.542;2022-08-01T07:46:05;19.95;89.36
64961;SHT31;51487;52.266;10.542;2022-08-01T07:48:31;19.89;89.09
64961;SHT31;51487;52.266;10.542;2022-08-01T07:50:57;20.11;88.40
64961;SHT31;51487;52.266;10.542;2022-08-01T07:53:22;20.04;89.35
64961;SHT31;51487;52.266;10.542;2022-08-01T07:55:48;19.95;88.98
64961;SHT31;51487;52.266;10.542;2022-08-01T07:58:15;20.01;89.04
64961;SHT31;51487;52.266;10.542;2022-08-01T08:00:41;20.18;88.87
64961;SHT31;51487;52.266;10.542;2022-08-01T08:03:06;20.39;87.81
64961;SHT31;51487;52.266;10.542;2022-08-01T08:05:32;20.62;86.17
64961;SHT31;51487;52.266;10.542;2022-08-01T08:08:07;20.76;84.05
64961;SHT31;51487;52.266;10.542;2022-08-01T08:10:33;20.59;84.72
64961;SHT31;51487;52.266;10.542;2022-08-01T08:13:00;20.42;85.26
64961;SHT31;51487;52.266;10.542;2022-08-01T08:15:26;20.71;85.08
64961;SHT31;51487;52.266;10.542;2022-08-01T08:17:52;20.34;84.34
64961;SHT31;51487;52.266;10.542;2022-08-01T08:20:17;20.77;83.84
64961;SHT31;51487;52.266;10.542;2022-08-01T08:22:43;20.95;83.16
64961;SHT31;51487;52.266;10.542;2022-08-01T08:25:08;21.00;81.89
64961;SHT31;51487;52.266;10.542;2022-08-01T08:27:35;20.80;82.89
64961;SHT31;51487;52.266;10.542;2022-08-01T08:30:03;20.30;83.74
64961;SHT31;51487;52.266;10.542;2022-08-01T08:32:32;20.29;83.11
64961;SHT31;51487;52.266;10.542;2022-08-01T08:34:58;20.64;83.70
64961;SHT31;51487;52.266;10.542;2022-08-01T08:37:23;20.59;83.42
64961;SHT31;51487;52.266;10.542;2022-08-01T08:39:49;20.66;80.63
64961;SHT31;51487;52.266;10.542;2022-08-01T08:42:14;20.76;79.13
64961;SHT31;51487;52.266;10.542;2022-08-01T08:44:41;20.95;79.03
64961;SHT31;51487;52.266;10.542;2022-08-01T08:47:10;21.15;78.12
64961;SHT31;51487;52.266;10.542;2022-08-01T08:49:37;21.14;77.49
64961;SHT31;51487;52.266;10.542;2022-08-01T08:52:04;21.45;77.60
64961;SHT31;51487;52.266;10.542;2022-08-01T08:54:31;21.59;76.47
64961;SHT31;51487;52.266;10.542;2022-08-01T08:56:59;21.66;76.27
64961;SHT31;51487;52.266;10.542;2022-08-01T08:59:26;21.38;75.90
64961;SHT31;51487;52.266;10.542;2022-08-01T09:01:52;21.72;75.48
64961;SHT31;51487;52.266;10.542;2022-08-01T09:04:20;21.70;76.00
64961;SHT31;51487;52.266;10.542;2022-08-01T09:06:47;21.73;76.15
64961;SHT31;51487;52.266;10.542;2022-08-01T09:09:13;21.55;76.42
64961;SHT31;51487;52.266;10.542;2022-08-01T09:11:38;21.25;77.06
64961;SHT31;51487;52.266;10.542;2022-08-01T09:14:15;21.20;77.65
64961;SHT31;51487;52.266;10.542;2022-08-01T09:17:09;21.20;77.90
64961;SHT31;51487;52.266;10.542;2022-08-01T09:19:47;21.15;78.36
64961;SHT31;51487;52.266;10.542;2022-08-01T09:22:17;21.08;78.80
64961;SHT31;51487;52.266;10.542;2022-08-01T09:27:27;20.92;81.10
64961;SHT31;51487;52.266;10.542;2022-08-01T09:29:53;20.69;80.88
64961;SHT31;51487;52.266;10.542;2022-08-01T09:32:20;21.02;80.63
64961;SHT31;51487;52.266;10.542;2022-08-01T09:34:45;21.21;80.62
64961;SHT31;51487;52.266;10.542;2022-08-01T09:37:12;21.05;79.95
64961;SHT31;51487;52.266;10.542;2022-08-01T09:39:42;20.97;80.56
64961;SHT31;51487;52.266;10.542;2022-08-01T09:42:24;21.17;79.98
64961;SHT31;51487;52.266;10.542;2022-08-01T09:44:50;20.88;79.56
64961;SHT31;51487;52.266;10.542;2022-08-01T09:47:19;21.05;79.05
64961;SHT31;51487;52.266;10.542;2022-08-01T09:49:55;21.21;78.23
64961;SHT31;51487;52.266;10.542;2022-08-01T09:52:23;21.08;78.03
64961;SHT31;51487;52.266;10.542;2022-08-01T09:55:05;21.24;77.77
64961;SHT31;51487;52.266;10.542;2022-08-01T09:57:30;21.15;78.31
64961;SHT31;51487;52.266;10.542;2022-08-01T09:59:58;21.46;77.82
64961;SHT31;51487;52.266;10.542;2022-08-01T10:02:35;21.78;77.85
64961;SHT31;51487;52.266;10.542;2022-08-01T10:05:10;21.35;77.37
64961;SHT31;51487;52.266;10.542;2022-08-01T10:07:55;21.80;76.14
64961;SHT31;51487;52.266;10.542;2022-08-01T10:10:21;21.70;75.19
64961;SHT31;51487;52.266;10.542;2022-08-01T10:12:48;21.70;75.34
64961;SHT31;51487;52.266;10.542;2022-08-01T10:15:16;21.48;76.31
64961;SHT31;51487;52.266;10.542;2022-08-01T10:17:54;21.46;76.74
64961;SHT31;51487;52.266;10.542;2022-08-01T10:20:25;21.42;77.07
64961;SHT31;51487;52.266;10.542;2022-08-01T10:22:54;21.76;76.07
64961;SHT31;51487;52.266;10.542;2022-08-01T10:25:21;21.70;74.99
64961;SHT31;51487;52.266;10.542;2022-08-01T10:27:49;21.72;74.26
64961;SHT31;51487;52.266;10.542;2022-08-01T10:30:17;21.75;74.11
64961;SHT31;51487;52.266;10.542;2022-08-01T10:32:46;22.03;73.88
64961;SHT31;51487;52.266;10.542;2022-08-01T10:35:13;21.59;75.63
64961;SHT31;51487;52.266;10.542;2022-08-01T10:37:46;21.72;75.72
64961;SHT31;51487;52.266;10.542;2022-08-01T10:40:15;21.86;74.58
64961;SHT31;51487;52.266;10.542;2022-08-01T10:42:42;21.69;75.48
64961;SHT31;51487;52.266;10.542;2022-08-01T10:45:14;21.76;75.69
64961;SHT31;51487;52.266;10.542;2022-08-01T10:47:53;21.38;74.71
64961;SHT31;51487;52.266;10.542;2022-08-01T10:50:38;21.50;73.76
64961;SHT31;51487;52.266;10.542;2022-08-01T10:53:15;21.70;73.66
64961;SHT31;51487;52.266;10.542;2022-08-01T10:56:01;21.75;71.70
64961;SHT31;51487;52.266;10.542;2022-08-01T10:58:37;21.63;71.44
64961;SHT31;51487;52.266;10.542;2022-08-01T11:01:29;21.87;71.18
64961;SHT31;51487;52.266;10.542;2022-08-01T11:04:14;22.11;70.14
64961;SHT31;51487;52.266;10.542;2022-08-01T11:07:04;22.49;69.95
64961;SHT31;51487;52.266;10.542;2022-08-01T11:09:42;22.64;69.75
64961;SHT31;51487;52.266;10.542;2022-08-01T11:17:45;21.60;72.86
64961;SHT31;51487;52.266;10.542;2022-08-01T11:20:22;21.70;72.22
64961;SHT31;51487;52.266;10.542;2022-08-01T11:25:23;21.94;71.34
64961;SHT31;51487;52.266;10.542;2022-08-01T11:27:48;21.97;71.40
64961;SHT31;51487;52.266;10.542;2022-08-01T11:32:48;22.58;69.62
64961;SHT31;51487;52.266;10.542;2022-08-01T11:35:14;22.49;68.95
64961;SHT31;51487;52.266;10.542;2022-08-01T11:37:40;22.21;69.57
64961;SHT31;51487;52.266;10.542;2022-08-01T11:40:19;22.30;69.21
64961;SHT31;51487;52.266;10.542;2022-08-01T11:42:49;22.40;68.80
64961;SHT31;51487;52.266;10.542;2022-08-01T11:45:16;22.22;68.45
64961;SHT31;51487;52.266;10.542;2022-08-01T11:47:50;22.22;69.02
64961;SHT31;51487;52.266;10.542;2022-08-01T11:50:36;21.69;70.37
64961;SHT31;51487;52.266;10.542;2022-08-01T11:53:07;21.97;70.50
64961;SHT31;51487;52.266;10.542;2022-08-01T11:55:33;21.93;70.62
64961;SHT31;51487;52.266;10.542;2022-08-01T11:58:07;21.76;71.43
64961;SHT31;51487;52.266;10.542;2022-08-01T12:00:33;22.04;71.03
64961;SHT31;51487;52.266;10.542;2022-08-01T12:03:05;21.85;71.57
64961;SHT31;51487;52.266;10.542;2022-08-01T12:05:33;21.97;71.55
64961;SHT31;51487;52.266;10.542;2022-08-01T12:08:00;22.09;71.54
64961;SHT31;51487;52.266;10.542;2022-08-01T12:10:30;21.80;70.92
64961;SHT31;51487;52.266;10.542;2022-08-01T12:13:04;22.20;70.20
64961;SHT31;51487;52.266;10.542;2022-08-01T12:15:34;22.09;69.40
64961;SHT31;51487;52.266;10.542;2022-08-01T12:18:05;22.48;69.57
64961;SHT31;51487;52.266;10.542;2022-08-01T12:20:35;22.59;68.54
64961;SHT31;51487;52.266;10.542;2022-08-01T12:23:08;22.55;68.35
64961;SHT31;51487;52.266;10.542;2022-08-01T12:25:35;22.37;69.02
64961;SHT31;51487;52.266;10.542;2022-08-01T12:28:05;22.33;69.89
64961;SHT31;51487;52.266;10.542;2022-08-01T12:30:33;22.31;69.93
64961;SHT31;51487;52.266;10.542;2022-08-01T12:33:07;22.00;71.20
64961;SHT31;51487;52.266;10.542;2022-08-01T12:35:37;21.92;71.25
64961;SHT31;51487;52.266;10.542;2022-08-01T12:38:07;22.09;70.94
64961;SHT31;51487;52.266;10.542;2022-08-01T12:40:41;21.93;71.41
64961;SHT31;51487;52.266;10.542;2022-08-01T12:43:09;22.21;70.78
64961;SHT31;51487;52.266;10.542;2022-08-01T12:45:45;22.30;68.82
64961;SHT31;51487;52.266;10.542;2022-08-01T12:48:15;22.72;68.37
64961;SHT31;51487;52.266;10.542;2022-08-01T12:50:49;23.05;67.58
64961;SHT31;51487;52.266;10.542;2022-08-01T12:53:15;22.84;67.07
64961;SHT31;51487;52.266;10.542;2022-08-01T12:55:51;22.92;66.65
64961;SHT31;51487;52.266;10.542;2022-08-01T12:58:20;23.24;65.73
64961;SHT31;51487;52.266;10.542;2022-08-01T13:00:49;23.03;65.01
64961;SHT31;51487;52.266;10.542;2022-08-01T13:03:18;23.07;64.02
64961;SHT31;51487;52.266;10.542;2022-08-01T13:05:52;22.78;65.01
64961;SHT31;51487;52.266;10.542;2022-08-01T13:10:48;22.57;65.94
64961;SHT31;51487;52.266;10.542;2022-08-01T13:13:16;22.25;67.19
64961;SHT31;51487;52.266;10.542;2022-08-01T13:15:44;22.22;65.81
64961;SHT31;51487;52.266;10.542;2022-08-01T13:18:31;22.22;65.97
64961;SHT31;51487;52.266;10.542;2022-08-01T13:21:13;22.16;66.55
64961;SHT31;51487;52.266;10.542;2022-08-01T13:23:41;22.28;66.27
64961;SHT31;51487;52.266;10.542;2022-08-01T13:26:07;22.38;65.64
64961;SHT31;51487;52.266;10.542;2022-08-01T13:28:34;22.09;66.69
64961;SHT31;51487;52.266;10.542;2022-08-01T13:31:07;22.38;66.34
64961;SHT31;51487;52.266;10.542;2022-08-01T13:33:46;22.36;66.55
64961;SHT31;51487;52.266;10.542;2022-08-01T13:36:14;22.52;66.28
64961;SHT31;51487;52.266;10.542;2022-08-01T13:38:41;22.33;66.62
64961;SHT31;51487;52.266;10.542;2022-08-01T13:41:26;22.55;67.04
64961;SHT31;51487;52.266;10.542;2022-08-01T13:43:52;22.07;67.49
64961;SHT31;51487;52.266;10.542;2022-08-01T13:46:18;22.13;67.32
64961;SHT31;51487;52.266;10.542;2022-08-01T13:48:44;22.31;66.20
64961;SHT31;51487;52.266;10.542;2022-08-01T13:51:09;22.25;65.49
64961;SHT31;51487;52.266;10.542;2022-08-01T13:53:35;22.33;64.51
64961;SHT31;51487;52.266;10.542;2022-08-01T13:56:02;22.33;65.65
64961;SHT31;51487;52.266;10.542;2022-08-01T13:58:27;22.55;64.65
64961;SHT31;51487;52.266;10.542;2022-08-01T14:00:54;22.81;64.20
64961;SHT31;51487;52.266;10.542;2022-08-01T14:03:21;23.10;63.19
64961;SHT31;51487;52.266;10.542;2022-08-01T14:05:47;22.99;63.20
64961;SHT31;51487;52.266;10.542;2022-08-01T14:08:13;23.02;62.72
64961;SHT31;51487;52.266;10.542;2022-08-01T14:10:38;22.75;63.47
64961;SHT31;51487;52.266;10.542;2022-08-01T14:13:04;22.88;63.03
64961;SHT31;51487;52.266;10.542;2022-08-01T14:15:31;22.79;62.95
64961;SHT31;51487;52.266;10.542;2022-08-01T14:17:58;22.81;62.92
64961;SHT31;51487;52.266;10.542;2022-08-01T14:20:24;22.45;63.35
64961;SHT31;51487;52.266;10.542;2022-08-01T14:22:49;22.62;63.76
64961;SHT31;51487;52.266;10.542;2022-08-01T14:25:15;22.64;63.11
64961;SHT31;51487;52.266;10.542;2022-08-01T14:27:44;22.44;63.41
64961;SHT31;51487;52.266;10.542;2022-08-01T14:30:10;22.72;63.17
64961;SHT31;51487;52.266;10.542;2022-08-01T14:32:37;23.00;63.58
64961;SHT31;51487;52.266;10.542;2022-08-01T14:35:05;22.95;62.77
64961;SHT31;51487;52.266;10.542;2022-08-01T14:37:32;22.75;62.74
64961;SHT31;51487;52.266;10.542;2022-08-01T14:40:00;23.05;61.67
64961;SHT31;51487;52.266;10.542;2022-08-01T14:42:30;22.94;62.46
64961;SHT31;51487;52.266;10.542;2022-08-01T14:44:55;22.99;62.05
64961;SHT31;51487;52.266;10.542;2022-08-01T14:47:21;23.22;61.60
64961;SHT31;51487;52.266;10.542;2022-08-01T14:49:46;23.07;62.32
64961;SHT31;51487;52.266;10.542;2022-08-01T14:52:12;22.86;62.10
64961;SHT31;51487;52.266;10.542;2022-08-01T14:54:38;22.95;61.86
64961;SHT31;51487;52.266;10.542;2022-08-01T14:57:03;23.06;61.80
64961;SHT31;51487;52.266;10.542;2022-08-01T14:59:29;23.30;60.62
64961;SHT31;51487;52.266;10.542;2022-08-01T15:01:54;23.17;60.25
64961;SHT31;51487;52.266;10.542;2022-08-01T15:04:20;22.79;61.27
64961;SHT31;51487;52.266;10.542;2022-08-01T15:06:45;22.79;61.58
64961;SHT31;51487;52.266;10.542;2022-08-01T15:09:11;23.28;60.89
64961;SHT31;51487;52.266;10.542;2022-08-01T15:11:37;23.31;60.33
64961;SHT31;51487;52.266;10.542;2022-08-01T15:14:03;23.39;59.61
64961;SHT31;51487;52.266;10.542;2022-08-01T15:16:47;23.64;59.28
64961;SHT31;51487;52.266;10.542;2022-08-01T15:19:13;23.73;59.67
64961;SHT31;51487;52.266;10.542;2022-08-01T15:21:39;23.84;60.39
64961;SHT31;51487;52.266;10.542;2022-08-01T15:24:05;23.78;60.63
64961;SHT31;51487;52.266;10.542;2022-08-01T15:26:30;23.68;59.59
64961;SHT31;51487;52.266;10.542;2022-08-01T15:28:56;23.44;59.79
64961;SHT31;51487;52.266;10.542;2022-08-01T15:31:22;23.27;60.49
64961;SHT31;51487;52.266;10.542;2022-08-01T15:33:47;23.22;60.44
64961;SHT31;51487;52.266;10.542;2022-08-01T15:36:13;23.12;60.40
64961;SHT31;51487;52.266;10.542;2022-08-01T15:38:38;23.26;61.29
64961;SHT31;51487;52.266;10.542;2022-08-01T15:41:04;23.02;60.64
64961;SHT31;51487;52.266;10.542;2022-08-01T15:43:30;22.96;60.75
64961;SHT31;51487;52.266;10.542;2022-08-01T15:45:57;23.22;60.78